Time,TemperatureF,DewpointF,PressureIn,WindDirection,WindDirectionDegrees,WindSpeedMPH,WindSpeedGustMPH,Humidity,HourlyPrecipIn,Conditions,Clouds,dailyrainin,SoftwareType,DateUTC
2013-03-11 08:00:00,36.3,22.9,29.47,NNW,338,2.1,2.1,58,0.00,CLR,,0.00,WeatherDisplay:10.37,2013-03-11 14:00:00,
2013-03-11 08:05:00,36.3,22.9,29.47,NW,315,0.0,2.0,58,0.00,CLR,,0.00,WeatherDisplay:10.37,2013-03-11 14:05:00,
2013-03-11 08:11:00,36.3,22.9,29.46,NW,315,2.0,2.0,58,0.00,CLR,,0.00,WeatherDisplay:10.37,2013-03-11 14:11:00,
2013-03-11 08:16:00,36.5,23.1,29.46,SSE,158,7.2,7.2,58,0.00,CLR,,0.00,WeatherDisplay:10.37,2013-03-11 14:16:00,
2013-03-11 08:21:00,36.9,23.4,29.46,ENE,68,2.3,2.3,58,0.00,CLR,,0.00,WeatherDisplay:10.37,2013-03-11 14:21:00,
2013-03-11 08:26:00,36.9,23.0,29.46,SSW,202,2.6,2.6,57,0.00,CLR,,0.00,WeatherDisplay:10.37,2013-03-11 14:26:00,
2013-03-11 08:31:00,36.9,23.0,29.47,North,0,5.3,5.3,57,0.00,CLR,,0.00,WeatherDisplay:10.37,2013-03-11 14:31:00,
2013-03-11 08:36:00,37.0,23.2,29.47,ENE,68,2.3,2.3,57,0.00,CLR,,0.00,WeatherDisplay:10.37,2013-03-11 14:36:00,
2013-03-11 08:41:00,37.0,23.2,29.47,ENE,68,5.6,5.6,57,0.00,CLR,,0.00,WeatherDisplay:10.37,2013-03-11 14:41:00,
2013-03-11 08:46:00,37.0,23.2,29.47,SSE,158,4.8,4.8,57,0.00,CLR,,0.00,WeatherDisplay:10.37,2013-03-11 14:46:00,
2013-03-11 08:51:00,37.2,23.4,29.47,South,180,2.8,2.8,57,0.00,CLR,,0.00,WeatherDisplay:10.37,2013-03-11 14:51:00,
2013-03-11 08:56:00,37.4,23.1,29.47,SSE,158,5.4,5.4,56,0.00,CLR,,0.00,WeatherDisplay:10.37,2013-03-11 14:56:00,
2013-03-11 09:01:00,37.6,23.7,29.47,South,180,0.0,2.2,57,0.00,CLR,,0.00,WeatherDisplay:10.37,2013-03-11 15:01:00,
2013-03-11 09:06:00,37.8,23.5,29.47,North,0,3.0,3.0,56,0.00,CLR,,0.00,WeatherDisplay:10.37,2013-03-11 15:06:00,
2013-03-11 09:11:00,37.9,23.2,29.47,SSW,202,4.9,4.9,55,0.00,CLR,,0.00,WeatherDisplay:10.37,2013-03-11 15:11:00,
2013-03-11 09:16:00,38.3,23.5,29.47,ENE,68,4.6,4.6,55,0.00,CLR,,0.00,WeatherDisplay:10.37,2013-03-11 15:16:00,
2013-03-11 09:21:00,38.5,23.7,29.47,SSW,202,0.0,1.3,55,0.00,CLR,,0.00,WeatherDisplay:10.37,2013-03-11 15:21:00,
2013-03-11 09:27:00,38.5,23.7,29.47,East,90,2.3,2.3,55,0.00,CLR,,0.00,WeatherDisplay:10.37,2013-03-11 15:27:00,
2013-03-11 09:32:00,38.8,23.6,29.47,ESE,112,5.8,5.8,54,0.00,CLR,,0.00,WeatherDisplay:10.37,2013-03-11 15:32:00,
2013-03-11 09:37:00,39.0,23.8,29.47,SSW,202,2.6,2.6,54,0.00,CLR,,0.00,WeatherDisplay:10.37,2013-03-11 15:37:00,
2013-03-11 09:42:00,39.2,23.9,29.47,SW,225,2.3,2.3,54,0.00,CLR,,0.00,WeatherDisplay:10.37,2013-03-11 15:42:00,
2013-03-11 09:47:00,39.2,23.5,29.47,SSW,202,0.0,1.1,53,0.00,CLR,,0.00,WeatherDisplay:10.37,2013-03-11 15:47:00,
2013-03-11 09:52:00,39.4,23.7,29.49,WSW,248,0.0,1.1,53,0.00,CLR,,0.00,WeatherDisplay:10.37,2013-03-11 15:52:00,
2013-03-11 09:57:00,39.7,23.5,29.49,WNW,292,0.0,1.5,52,0.00,CLR,,0.00,WeatherDisplay:10.37,2013-03-11 15:57:00,
2013-03-11 10:02:00,39.7,23.5,29.49,SSW,202,3.5,3.5,52,0.00,CLR,,0.00,WeatherDisplay:10.37,2013-03-11 16:02:00,
2013-03-11 10:07:00,39.7,23.1,29.49,SE,135,3.5,3.5,51,0.00,CLR,,0.00,WeatherDisplay:10.37,2013-03-11 16:07:00,
2013-03-11 10:12:00,39.7,23.1,29.49,East,90,5.8,5.8,51,0.00,CLR,,0.00,WeatherDisplay:10.37,2013-03-11 16:12:00,
2013-03-11 10:17:00,39.7,22.6,29.49,SSW,202,9.2,9.2,50,0.00,CLR,,0.00,WeatherDisplay:10.37,2013-03-11 16:17:00,
2013-03-11 10:22:00,39.4,21.8,29.49,SSW,202,5.8,5.8,49,0.00,CLR,,0.00,WeatherDisplay:10.37,2013-03-11 16:22:00,
2013-03-11 10:27:00,39.7,22.1,29.49,East,90,3.9,3.9,49,0.00,CLR,,0.00,WeatherDisplay:10.37,2013-03-11 16:27:00,
2013-03-11 10:32:00,39.7,22.1,29.49,SE,135,0.0,1.7,49,0.00,CLR,,0.00,WeatherDisplay:10.37,2013-03-11 16:32:00,
2013-03-11 10:37:00,39.7,21.1,29.49,SSE,158,11.7,11.7,47,0.00,CLR,,0.00,WeatherDisplay:10.37,2013-03-11 16:37:00,
2013-03-11 10:42:00,39.7,21.1,29.49,East,90,11.5,11.5,47,0.00,CLR,,0.00,WeatherDisplay:10.37,2013-03-11 16:42:00,
2013-03-11 10:47:00,40.1,22.0,29.50,SSW,202,5.8,5.8,48,0.00,CLR,,0.00,WeatherDisplay:10.37,2013-03-11 16:47:00,
2013-03-11 10:52:00,40.3,21.6,29.50,SSE,158,3.5,3.5,47,0.00,CLR,,0.00,WeatherDisplay:10.37,2013-03-11 16:52:00,
2013-03-11 10:57:00,40.5,20.8,29.50,SSW,202,0.0,2.9,45,0.00,CLR,,0.00,WeatherDisplay:10.37,2013-03-11 16:57:00,
2013-03-11 11:02:00,40.5,20.8,29.50,SW,225,4.6,4.6,45,0.00,CLR,,0.00,WeatherDisplay:10.37,2013-03-11 17:02:00,
2013-03-11 11:08:00,40.5,21.3,29.50,SSW,202,2.3,2.6,46,0.00,CLR,,0.00,WeatherDisplay:10.37,2013-03-11 17:08:00,
2013-03-11 11:13:00,40.6,21.4,29.50,SE,135,0.0,1.8,46,0.00,CLR,,0.00,WeatherDisplay:10.37,2013-03-11 17:13:00,
2013-03-11 11:18:00,40.8,21.6,29.50,SSE,158,2.3,2.3,46,0.00,CLR,,0.00,WeatherDisplay:10.37,2013-03-11 17:18:00,
2013-03-11 11:23:00,40.8,20.6,29.50,NE,45,2.3,2.4,44,0.00,CLR,,0.00,WeatherDisplay:10.37,2013-03-11 17:23:00,
2013-03-11 11:28:00,41.2,21.4,29.52,East,90,8.1,8.1,45,0.00,CLR,,0.00,WeatherDisplay:10.37,2013-03-11 17:28:00,
2013-03-11 11:33:00,41.0,21.3,29.52,East,90,3.5,3.5,45,0.00,CLR,,0.00,WeatherDisplay:10.37,2013-03-11 17:33:00,
2013-03-11 11:38:00,41.2,21.4,29.52,WSW,248,4.6,4.6,45,0.00,CLR,,0.00,WeatherDisplay:10.37,2013-03-11 17:38:00,
2013-03-11 11:43:00,41.4,21.6,29.52,SSE,158,0.0,3.6,45,0.00,CLR,,0.00,WeatherDisplay:10.37,2013-03-11 17:43:00,
2013-03-11 11:48:00,41.4,20.0,29.54,WSW,248,0.0,4.3,42,0.00,CLR,,0.00,WeatherDisplay:10.37,2013-03-11 17:48:00,
2013-03-11 11:53:00,41.2,20.9,29.54,SW,225,2.3,3.7,44,0.00,CLR,,0.00,WeatherDisplay:10.37,2013-03-11 17:53:00,
2013-03-11 11:58:00,41.7,21.4,29.54,SE,135,0.0,2.6,44,0.00,CLR,,0.00,WeatherDisplay:10.37,2013-03-11 17:58:00,
2013-03-11 12:03:00,41.9,20.4,29.54,SSE,158,11.5,11.5,42,0.00,CLR,,0.00,WeatherDisplay:10.37,2013-03-11 18:03:00,
2013-03-11 12:08:00,41.9,20.4,29.55,SSE,158,0.0,3.3,42,0.00,CLR,,0.00,WeatherDisplay:10.37,2013-03-11 18:08:00,
2013-03-11 12:13:00,41.9,20.4,29.55,SE,135,11.5,11.5,42,0.00,CLR,,0.00,WeatherDisplay:10.37,2013-03-11 18:13:00,
2013-03-11 12:18:00,42.3,21.9,29.55,SSW,202,2.3,4.0,44,0.00,CLR,,0.00,WeatherDisplay:10.37,2013-03-11 18:18:00,
2013-03-11 12:23:00,42.8,22.4,29.55,East,90,6.9,6.9,44,0.00,CLR,,0.00,WeatherDisplay:10.37,2013-03-11 18:23:00,
2013-03-11 12:28:00,42.8,22.4,29.53,West,270,0.0,1.8,44,0.00,CLR,,0.00,WeatherDisplay:10.37,2013-03-11 18:28:00,
2013-03-11 12:33:00,42.8,22.4,29.53,SSE,158,0.0,1.4,44,0.00,CLR,,0.00,WeatherDisplay:10.37,2013-03-11 18:33:00,
2013-03-11 12:38:00,43.0,21.4,29.53,ESE,112,3.5,3.5,42,0.00,CLR,,0.00,WeatherDisplay:10.37,2013-03-11 18:38:00,
2013-03-11 12:43:00,42.8,21.3,29.53,East,90,3.5,3.5,42,0.00,CLR,,0.00,WeatherDisplay:10.37,2013-03-11 18:43:00,
2013-03-11 12:48:00,43.3,22.3,29.52,SSW,202,10.4,10.4,43,0.00,CLR,,0.00,WeatherDisplay:10.37,2013-03-11 18:48:00,
2013-03-11 12:53:00,43.5,21.9,29.52,SSE,158,0.0,3.8,42,0.00,CLR,,0.00,WeatherDisplay:10.37,2013-03-11 18:53:00,
2013-03-11 12:58:00,43.3,21.8,29.52,WSW,248,4.6,4.6,42,0.00,CLR,,0.00,WeatherDisplay:10.37,2013-03-11 18:58:00,
2013-03-11 13:03:00,43.3,21.8,29.52,SSW,202,5.8,5.8,42,0.00,CLR,,0.00,WeatherDisplay:10.37,2013-03-11 19:03:00,
2013-03-11 13:08:00,43.7,21.5,29.51,NW,315,0.0,3.3,41,0.00,CLR,,0.00,WeatherDisplay:10.37,2013-03-11 19:08:00,
2013-03-11 13:13:00,43.3,20.6,29.51,SE,135,8.1,8.1,40,0.00,CLR,,0.00,WeatherDisplay:10.37,2013-03-11 19:13:00,
2013-03-11 13:18:00,43.9,21.7,29.51,SW,225,5.8,5.8,41,0.00,CLR,,0.00,WeatherDisplay:10.37,2013-03-11 19:18:00,
2013-03-11 13:23:00,43.7,21.5,29.51,SE,135,0.0,3.3,41,0.00,CLR,,0.00,WeatherDisplay:10.37,2013-03-11 19:23:00,
2013-03-11 13:28:00,44.1,21.8,29.54,NE,45,0.0,2.5,41,0.00,CLR,,0.00,WeatherDisplay:10.37,2013-03-11 19:28:00,
2013-03-11 13:33:00,44.4,22.2,29.54,NE,45,0.0,2.5,41,0.00,CLR,,0.00,WeatherDisplay:10.37,2013-03-11 19:33:00,
2013-03-11 13:38:00,44.8,22.5,29.54,SSW,202,9.2,9.2,41,0.00,CLR,,0.00,WeatherDisplay:10.37,2013-03-11 19:38:00,
2013-03-11 13:43:00,44.8,22.5,29.54,SW,225,4.6,4.6,41,0.00,CLR,,0.00,WeatherDisplay:10.37,2013-03-11 19:43:00,
2013-03-11 13:48:00,44.8,22.5,29.54,ENE,68,5.8,5.8,41,0.00,CLR,,0.00,WeatherDisplay:10.37,2013-03-11 19:48:00,
2013-03-11 13:53:00,45.0,22.6,29.54,WNW,292,2.3,2.6,41,0.00,CLR,,0.00,WeatherDisplay:10.37,2013-03-11 19:53:00,
2013-03-11 13:58:00,45.0,22.6,29.54,South,180,0.0,3.1,41,0.00,CLR,,0.00,WeatherDisplay:10.37,2013-03-11 19:58:00,
2013-03-11 14:03:00,45.0,22.1,29.54,East,90,5.8,5.8,40,0.00,CLR,,0.00,WeatherDisplay:10.37,2013-03-11 20:03:00,
2013-03-11 14:08:00,44.8,21.9,29.54,NW,315,0.0,3.6,40,0.00,CLR,,0.00,WeatherDisplay:10.37,2013-03-11 20:08:00,
2013-03-11 14:13:00,44.4,21.6,29.54,NW,315,0.0,4.4,40,0.00,CLR,,0.00,WeatherDisplay:10.37,2013-03-11 20:13:00,
2013-03-11 14:18:00,43.3,22.3,29.54,WSW,248,4.6,4.6,43,0.00,CLR,,0.00,WeatherDisplay:10.37,2013-03-11 20:18:00,
2013-03-11 14:23:00,42.6,22.2,29.54,SE,135,4.6,4.6,44,0.00,CLR,,0.00,WeatherDisplay:10.37,2013-03-11 20:23:00,
2013-03-11 14:28:00,42.3,21.9,29.53,WSW,248,0.0,3.6,44,0.00,CLR,,0.00,WeatherDisplay:10.37,2013-03-11 20:28:00,
2013-03-11 14:33:00,42.1,22.2,29.53,SW,225,0.0,2.6,45,0.00,CLR,,0.00,WeatherDisplay:10.37,2013-03-11 20:33:00,
2013-03-11 14:38:00,41.5,22.3,29.53,SSE,158,0.0,2.0,46,0.00,CLR,,0.00,WeatherDisplay:10.37,2013-03-11 20:38:00,
2013-03-11 14:43:00,41.2,21.9,29.53,SE,135,0.0,1.6,46,0.00,CLR,,0.00,WeatherDisplay:10.37,2013-03-11 20:43:00,
2013-03-11 14:48:00,41.2,22.5,29.52,SSE,158,0.0,1.5,47,0.00,CLR,,0.00,WeatherDisplay:10.37,2013-03-11 20:48:00,
2013-03-11 14:53:00,40.8,22.1,29.52,SSW,202,0.0,1.0,47,0.00,CLR,,0.00,WeatherDisplay:10.37,2013-03-11 20:53:00,
2013-03-11 14:58:00,40.6,22.0,29.52,ESE,112,3.5,3.5,47,0.00,CLR,,0.00,WeatherDisplay:10.37,2013-03-11 20:58:00,
2013-03-11 15:03:00,40.6,22.0,29.52,SSW,202,0.0,1.8,47,0.00,CLR,,0.00,WeatherDisplay:10.37,2013-03-11 21:03:00,
2013-03-11 15:08:00,40.5,22.3,29.51,SSW,202,0.0,1.6,48,0.00,CLR,,0.00,WeatherDisplay:10.37,2013-03-11 21:08:00,
2013-03-11 15:13:00,40.1,22.0,29.51,SSW,202,0.0,2.0,48,0.00,CLR,,0.00,WeatherDisplay:10.37,2013-03-11 21:13:00,
2013-03-11 15:18:00,39.9,21.8,29.51,SW,225,0.0,1.4,48,0.00,CLR,,0.00,WeatherDisplay:10.37,2013-03-11 21:18:00,
2013-03-11 15:23:00,39.9,21.8,29.51,NW,315,0.0,0.5,48,0.00,CLR,,0.00,WeatherDisplay:10.37,2013-03-11 21:23:00,
2013-03-11 15:29:00,39.9,22.3,29.52,SSE,158,0.0,0.7,49,0.00,CLR,,0.00,WeatherDisplay:10.37,2013-03-11 21:29:00,
2013-03-11 15:34:00,39.9,22.3,29.52,SSE,158,4.6,4.6,49,0.00,CLR,,0.00,WeatherDisplay:10.37,2013-03-11 21:34:00,
2013-03-11 15:39:00,39.7,22.1,29.52,SSE,158,0.0,2.0,49,0.00,CLR,,0.00,WeatherDisplay:10.37,2013-03-11 21:39:00,
2013-03-11 15:44:00,39.7,22.1,29.52,SW,225,0.0,2.2,49,0.00,CLR,,0.00,WeatherDisplay:10.37,2013-03-11 21:44:00,
2013-03-11 15:49:00,39.7,22.1,29.53,South,180,0.0,2.2,49,0.00,CLR,,0.00,WeatherDisplay:10.37,2013-03-11 21:49:00,
2013-03-11 15:54:00,39.4,21.8,29.53,WSW,248,0.0,1.1,49,0.00,CLR,,0.00,WeatherDisplay:10.37,2013-03-11 21:54:00,
2013-03-11 15:59:00,39.2,21.6,29.53,SSE,158,5.8,5.8,49,0.00,CLR,,0.00,WeatherDisplay:10.37,2013-03-11 21:59:00,
2013-03-11 16:04:00,38.8,21.3,29.53,SSW,202,0.0,1.1,49,0.00,CLR,,0.00,WeatherDisplay:10.37,2013-03-11 22:04:00,
2013-03-11 16:09:00,38.1,21.1,29.53,SSW,202,3.5,3.5,50,0.00,CLR,,0.00,WeatherDisplay:10.37,2013-03-11 22:09:00,
2013-03-11 16:14:00,37.8,20.8,29.53,SE,135,0.0,1.4,50,0.00,CLR,,0.00,WeatherDisplay:10.37,2013-03-11 22:14:00,
2013-03-11 16:19:00,37.6,21.1,29.53,SSE,158,0.0,1.3,51,0.00,CLR,,0.00,WeatherDisplay:10.37,2013-03-11 22:19:00,
2013-03-11 16:24:00,37.2,20.7,29.53,SW,225,0.0,0.9,51,0.00,CLR,,0.00,WeatherDisplay:10.37,2013-03-11 22:24:00,
2013-03-11 16:29:00,37.0,20.6,29.52,SSW,202,0.0,0.9,51,0.00,CLR,,0.00,WeatherDisplay:10.37,2013-03-11 22:29:00,
2013-03-11 16:34:00,37.0,21.0,29.52,SE,135,0.0,1.4,52,0.00,CLR,,0.00,WeatherDisplay:10.37,2013-03-11 22:34:00,
2013-03-11 16:39:00,37.0,21.0,29.52,SE,135,0.0,1.8,52,0.00,CLR,,0.00,WeatherDisplay:10.37,2013-03-11 22:39:00,
2013-03-11 16:44:00,37.0,21.0,29.52,SSW,202,0.0,1.7,52,0.00,CLR,,0.00,WeatherDisplay:10.37,2013-03-11 22:44:00,
2013-03-11 16:49:00,37.2,21.2,29.52,SW,225,0.0,0.7,52,0.00,CLR,,0.00,WeatherDisplay:10.37,2013-03-11 22:49:00,
2013-03-11 16:54:00,37.0,21.0,29.52,SW,225,0.0,0.3,52,0.00,CLR,,0.00,WeatherDisplay:10.37,2013-03-11 22:54:00,
2013-03-11 16:59:00,37.0,21.0,29.52,SSW,202,0.0,0.3,52,0.00,CLR,,0.00,WeatherDisplay:10.37,2013-03-11 22:59:00,
2013-03-11 17:04:00,36.7,20.2,29.52,WSW,248,0.0,1.0,51,0.00,CLR,,0.00,WeatherDisplay:10.37,2013-03-11 23:04:00,
2013-03-11 17:09:00,36.5,20.1,29.52,SSW,202,0.0,0.8,51,0.00,CLR,,0.00,WeatherDisplay:10.37,2013-03-11 23:09:00,
2013-03-11 17:14:00,36.5,20.1,29.52,SE,135,0.0,0.6,51,0.00,CLR,,0.00,WeatherDisplay:10.37,2013-03-11 23:14:00,
2013-03-11 17:19:00,36.3,19.9,29.52,ESE,112,0.0,2.0,51,0.00,CLR,,0.00,WeatherDisplay:10.37,2013-03-11 23:19:00,
2013-03-11 17:24:00,36.1,19.7,29.52,WSW,248,0.0,2.6,51,0.00,CLR,,0.00,WeatherDisplay:10.37,2013-03-11 23:24:00,
2013-03-11 17:29:00,36.1,19.7,29.54,SE,135,0.0,1.8,51,0.00,CLR,,0.00,WeatherDisplay:10.37,2013-03-11 23:29:00,
2013-03-11 17:34:00,36.1,20.2,29.54,SW,225,0.0,1.3,52,0.00,CLR,,0.00,WeatherDisplay:10.37,2013-03-11 23:34:00,
2013-03-11 17:39:00,36.1,20.2,29.54,SSW,202,0.0,1.1,52,0.00,CLR,,0.00,WeatherDisplay:10.37,2013-03-11 23:39:00,
2013-03-11 17:44:00,36.1,20.2,29.54,WNW,292,0.0,0.3,52,0.00,CLR,,0.00,WeatherDisplay:10.37,2013-03-11 23:44:00,
2013-03-11 17:49:00,35.8,19.9,29.53,SW,225,0.0,0.1,52,0.00,CLR,,0.00,WeatherDisplay:10.37,2013-03-11 23:49:00,
2013-03-11 17:54:00,35.6,19.7,29.53,SSW,202,0.0,0.7,52,0.00,CLR,,0.00,WeatherDisplay:10.37,2013-03-11 23:54:00,
2013-03-11 18:00:00,35.2,19.4,29.53,SW,225,0.0,1.5,52,0.00,CLR,,0.00,WeatherDisplay:10.37,2013-03-12 00:00:00,
2013-03-11 18:05:00,35.1,19.2,29.53,SSE,158,0.0,1.4,52,0.00,CLR,,0.00,WeatherDisplay:10.37,2013-03-12 00:05:00,
2013-03-11 18:10:00,34.7,18.9,29.54,WSW,248,0.0,2.0,52,0.00,CLR,,0.00,WeatherDisplay:10.37,2013-03-12 00:10:00,
2013-03-11 18:15:00,34.2,18.8,29.54,SE,135,0.0,2.5,53,0.00,CLR,,0.00,WeatherDisplay:10.37,2013-03-12 00:15:00,
2013-03-11 18:20:00,34.2,18.8,29.54,NE,45,0.0,2.2,53,0.00,CLR,,0.00,WeatherDisplay:10.37,2013-03-12 00:20:00,
2013-03-11 18:25:00,34.0,18.6,29.54,South,180,0.0,2.4,53,0.00,CLR,,0.00,WeatherDisplay:10.37,2013-03-12 00:25:00,
2013-03-11 18:30:00,34.0,19.1,29.55,SW,225,0.0,2.1,54,0.00,CLR,,0.00,WeatherDisplay:10.37,2013-03-12 00:30:00,
2013-03-11 18:35:00,33.6,18.7,29.55,SE,135,0.0,1.3,54,0.00,CLR,,0.00,WeatherDisplay:10.37,2013-03-12 00:35:00,
2013-03-11 18:40:00,33.6,18.7,29.55,SE,135,0.0,0.9,54,0.00,CLR,,0.00,WeatherDisplay:10.37,2013-03-12 00:40:00,
2013-03-11 18:45:00,33.1,18.2,29.55,SSW,202,0.0,1.8,54,0.00,CLR,,0.00,WeatherDisplay:10.37,2013-03-12 00:45:00,
2013-03-11 18:50:00,32.9,18.1,29.55,SSW,202,0.0,2.0,54,0.00,CLR,,0.00,WeatherDisplay:10.37,2013-03-12 00:50:00,
2013-03-11 18:55:00,32.5,17.7,29.55,WSW,248,0.0,2.2,54,0.00,CLR,,0.00,WeatherDisplay:10.37,2013-03-12 00:55:00,
2013-03-11 19:00:00,32.2,16.9,29.55,WNW,292,2.3,2.3,53,0.00,CLR,,0.00,WeatherDisplay:10.37,2013-03-12 01:00:00,
2013-03-11 19:05:00,31.8,17.0,29.55,SSW,202,2.3,2.3,54,0.00,CLR,,0.00,WeatherDisplay:10.37,2013-03-12 01:05:00,
2013-03-11 19:10:00,31.8,17.0,29.56,SW,225,0.0,0.9,54,0.00,CLR,,0.00,WeatherDisplay:10.37,2013-03-12 01:10:00,
2013-03-11 19:15:00,31.1,16.4,29.56,SW,225,2.2,2.2,54,0.00,CLR,,0.00,WeatherDisplay:10.37,2013-03-12 01:15:00,
2013-03-11 19:20:00,30.9,16.2,29.56,SSE,158,2.3,2.3,54,0.00,CLR,,0.00,WeatherDisplay:10.37,2013-03-12 01:20:00,
2013-03-11 19:25:00,30.4,16.1,29.56,ENE,68,2.4,2.4,55,0.00,CLR,,0.00,WeatherDisplay:10.37,2013-03-12 01:25:00,
2013-03-11 19:30:00,30.4,16.1,29.56,SSE,158,2.2,2.2,55,0.00,CLR,,0.00,WeatherDisplay:10.37,2013-03-12 01:30:00,
2013-03-11 19:35:00,30.0,15.8,29.56,ESE,112,2.3,2.3,55,0.00,CLR,,0.00,WeatherDisplay:10.37,2013-03-12 01:35:00,
2013-03-11 19:40:00,30.0,15.8,29.56,SW,225,0.0,0.3,55,0.00,CLR,,0.00,WeatherDisplay:10.37,2013-03-12 01:40:00,
2013-03-11 19:45:00,29.7,15.5,29.56,SSW,202,0.0,0.0,55,0.00,CLR,,0.00,WeatherDisplay:10.37,2013-03-12 01:45:00,
2013-03-11 19:50:00,29.7,15.5,29.58,North,0,0.0,0.0,55,0.00,CLR,,0.00,WeatherDisplay:10.37,2013-03-12 01:50:00,
2013-03-11 19:55:00,29.3,15.1,29.58,North,0,0.0,0.0,55,0.00,CLR,,0.00,WeatherDisplay:10.37,2013-03-12 01:55:00,
2013-03-11 20:00:00,29.3,15.5,29.58,NE,45,2.3,2.3,56,0.00,CLR,,0.00,WeatherDisplay:10.37,2013-03-12 02:00:00,
2013-03-11 20:05:00,28.9,14.8,29.58,SE,135,0.0,0.1,55,0.00,CLR,,0.00,WeatherDisplay:10.37,2013-03-12 02:05:00,
2013-03-11 20:10:00,28.9,14.8,29.58,SE,135,0.0,0.1,55,0.00,CLR,,0.00,WeatherDisplay:10.37,2013-03-12 02:10:00,
2013-03-11 20:15:00,28.8,14.6,29.58,WNW,292,0.0,0.1,55,0.00,CLR,,0.00,WeatherDisplay:10.37,2013-03-12 02:15:00,
2013-03-11 20:20:00,28.8,15.0,29.58,WSW,248,0.0,0.1,56,0.00,CLR,,0.00,WeatherDisplay:10.37,2013-03-12 02:20:00,
2013-03-11 20:25:00,28.9,15.2,29.58,SSE,158,0.0,0.0,56,0.00,CLR,,0.00,WeatherDisplay:10.37,2013-03-12 02:25:00,
2013-03-11 20:30:00,28.6,14.9,29.59,SW,225,1.1,0.0,56,0.00,CLR,,0.00,WeatherDisplay:10.37,2013-03-12 02:30:00,
2013-03-11 20:35:00,28.4,15.1,29.59,WSW,248,0.0,0.0,57,0.00,CLR,,0.00,WeatherDisplay:10.37,2013-03-12 02:35:00,
2013-03-11 20:40:00,28.4,14.7,29.59,North,0,0.0,0.0,56,0.00,CLR,,0.00,WeatherDisplay:10.37,2013-03-12 02:40:00,
2013-03-11 20:45:00,28.2,14.5,29.59,WSW,248,0.0,0.0,56,0.00,CLR,,0.00,WeatherDisplay:10.37,2013-03-12 02:45:00,
2013-03-11 20:50:00,28.2,14.5,29.59,WSW,248,0.0,0.0,56,0.00,CLR,,0.00,WeatherDisplay:10.37,2013-03-12 02:50:00,
2013-03-11 20:55:00,28.2,14.9,29.59,SSW,202,0.0,0.0,57,0.00,CLR,,0.00,WeatherDisplay:10.37,2013-03-12 02:55:00,
2013-03-11 21:00:00,28.0,14.8,29.59,WSW,248,0.0,0.0,57,0.00,CLR,,0.00,WeatherDisplay:10.37,2013-03-12 03:00:00,
2013-03-11 21:05:00,28.2,14.9,29.59,WSW,248,0.0,0.0,57,0.00,CLR,,0.00,WeatherDisplay:10.37,2013-03-12 03:05:00,
2013-03-11 21:10:00,28.2,15.3,29.62,WSW,248,0.0,0.0,58,0.00,CLR,,0.00,WeatherDisplay:10.37,2013-03-12 03:10:00,
2013-03-11 21:15:00,27.9,15.0,29.62,WNW,292,0.0,0.0,58,0.00,CLR,,0.00,WeatherDisplay:10.37,2013-03-12 03:15:00,
2013-03-11 21:20:00,27.9,15.0,29.62,WSW,248,0.0,0.0,58,0.00,CLR,,0.00,WeatherDisplay:10.37,2013-03-12 03:20:00,
2013-03-11 21:25:00,27.5,14.6,29.62,SSW,202,0.0,0.0,58,0.00,CLR,,0.00,WeatherDisplay:10.37,2013-03-12 03:25:00,
2013-03-11 21:30:00,27.5,14.6,29.62,SSW,202,0.0,0.0,58,0.00,CLR,,0.00,WeatherDisplay:10.37,2013-03-12 03:30:00,
2013-03-11 21:35:00,27.5,14.6,29.62,NNW,338,0.0,0.0,58,0.00,CLR,,0.00,WeatherDisplay:10.37,2013-03-12 03:35:00,
2013-03-11 21:40:00,27.1,14.3,29.62,North,0,0.0,0.0,58,0.00,CLR,,0.00,WeatherDisplay:10.37,2013-03-12 03:40:00,
2013-03-11 21:45:00,27.1,14.3,29.62,ESE,112,0.0,0.0,58,0.00,CLR,,0.00,WeatherDisplay:10.37,2013-03-12 03:45:00,
2013-03-11 21:50:00,27.1,14.3,29.62,NNW,338,0.0,0.0,58,0.00,CLR,,0.00,WeatherDisplay:10.37,2013-03-12 03:50:00,
2013-03-11 21:55:00,27.1,14.3,29.62,WSW,248,0.0,0.0,58,0.00,CLR,,0.00,WeatherDisplay:10.37,2013-03-12 03:55:00,
2013-03-11 22:00:00,27.1,14.3,29.62,SSW,202,0.0,0.0,58,0.00,CLR,,0.00,WeatherDisplay:10.37,2013-03-12 04:00:00,
2013-03-11 22:01:00,27.1,14.3,29.62,SSW,202,0.0,0.0,58,0.00,CLR,,0.00,WeatherDisplay:10.37,2013-03-12 04:01:00,
2013-03-11 23:56:00,26.4,14.4,29.62,North,0,0.0,0.0,60,0.00,CLR,,0.00,WeatherDisplay:10.37,2013-03-12 05:56:00,
2013-03-11 23:59:00,26.4,14.4,29.62,North,0,0.0,0.0,60,0.00,CLR,,0.00,WeatherDisplay:10.37,2013-03-12 05:59:00,